Time;durP1;ratioP1;P1;durP2;ratioP2;P2;SDS_P1;SDS_P2;PMS_P1;PMS_P2;Temp;Humidity;BMP_temperature;BMP_pressure;BME280_temperature;BME280_humidity;BME280_pressure;Samples;Min_cycle;Max_cycle;Signal;HPM_P1;HPM_P2
2022/08/21 00:00:31;;;;;;;7.68;3.72;;;;;;;;;;4993529;28;20062;-64
2022/08/21 00:03:01;;;;;;;9.88;3.88;;;;;;;;;;4995084;28;20042;-64
2022/08/21 00:05:27;;;;;;;6.20;3.85;;;;;;;;;;4996016;28;20403;-64
2022/08/21 00:07:54;;;;;;;6.10;3.22;;;;;;;;;;4994627;28;20038;-64
2022/08/21 00:10:21;;;;;;;4.65;2.40;;;;;;;;;;4995040;28;20448;-64
2022/08/21 00:12:47;;;;;;;4.93;3.35;;;;;;;;;;4995344;28;20034;-64
2022/08/21 00:15:16;;;;;;;5.22;3.13;;;;;;;;;;4994114;28;20046;-64
2022/08/21 00:17:42;;;;;;;7.85;3.70;;;;;;;;;;4990404;28;20427;-64
2022/08/21 00:20:09;;;;;;;4.05;2.85;;;;;;;;;;4989581;28;20051;-64
2022/08/21 00:22:35;;;;;;;5.28;2.53;;;;;;;;;;5001389;28;20045;-64
2022/08/21 00:25:02;;;;;;;5.75;3.00;;;;;;;;;;4992519;28;20072;-64
2022/08/21 00:27:28;;;;;;;5.72;2.97;;;;;;;;;;4992336;28;20069;-64
2022/08/21 00:29:55;;;;;;;6.63;3.22;;;;;;;;;;4993129;28;20396;-64
2022/08/21 00:32:22;;;;;;;7.07;2.70;;;;;;;;;;4993828;28;20052;-64
2022/08/21 00:34:48;;;;;;;4.93;3.00;;;;;;;;;;4985903;28;20077;-64
2022/08/21 00:37:15;;;;;;;4.97;2.40;;;;;;;;;;4993462;28;20132;-64
2022/08/21 00:39:41;;;;;;;4.00;2.45;;;;;;;;;;4993252;28;20052;-64
2022/08/21 00:42:07;;;;;;;8.75;2.95;;;;;;;;;;4994583;28;20084;-64
2022/08/21 00:44:33;;;;;;;4.10;3.67;;;;;;;;;;4994197;28;20093;-64
2022/08/21 00:46:59;;;;;;;7.05;3.20;;;;;;;;;;4976751;28;20049;-64
2022/08/21 00:49:25;;;;;;;6.05;4.53;;;;;;;;;;4993834;28;20042;-64
2022/08/21 00:51:52;;;;;;;4.88;3.15;;;;;;;;;;4999911;28;20038;-64
2022/08/21 00:54:19;;;;;;;3.00;2.67;;;;;;;;;;4990141;28;20033;-64
2022/08/21 00:56:46;;;;;;;5.57;3.60;;;;;;;;;;4993163;28;20073;-64
2022/08/21 00:59:13;;;;;;;4.55;3.25;;;;;;;;;;4991943;28;20049;-64
2022/08/21 01:01:39;;;;;;;5.05;3.80;;;;;;;;;;4976956;28;20044;-64
2022/08/21 01:04:05;;;;;;;6.53;4.38;;;;;;;;;;4987459;28;20055;-64
2022/08/21 01:06:31;;;;;;;5.07;3.47;;;;;;;;;;4992747;28;20074;-64
2022/08/21 01:08:58;;;;;;;7.60;4.82;;;;;;;;;;4993900;28;20113;-64
2022/08/21 01:11:24;;;;;;;7.05;4.28;;;;;;;;;;4975815;28;20651;-64
2022/08/21 01:13:51;;;;;;;7.22;4.43;;;;;;;;;;4976065;28;20046;-64
2022/08/21 01:16:19;;;;;;;11.15;5.85;;;;;;;;;;4992847;28;20554;-64
2022/08/21 01:18:47;;;;;;;10.40;4.90;;;;;;;;;;4992777;28;20039;-64
2022/08/21 01:21:20;;;;;;;6.80;5.07;;;;;;;;;;4991382;28;20452;-63
2022/08/21 01:23:48;;;;;;;7.97;4.57;;;;;;;;;;4994036;28;20046;-63
2022/08/21 01:26:16;;;;;;;7.05;5.30;;;;;;;;;;4990849;28;20049;-64
2022/08/21 01:28:49;;;;;;;6.95;5.10;;;;;;;;;;4993039;28;20042;-64
2022/08/21 01:31:18;;;;;;;6.95;4.38;;;;;;;;;;4992582;28;20045;-64
2022/08/21 01:33:44;;;;;;;5.05;3.80;;;;;;;;;;4992932;28;20073;-63
2022/08/21 01:36:10;;;;;;;4.40;4.00;;;;;;;;;;4985614;28;20073;-64
2022/08/21 01:38:36;;;;;;;4.57;3.20;;;;;;;;;;4974263;28;20077;-64
2022/08/21 01:41:02;;;;;;;3.90;2.80;;;;;;;;;;4975425;28;20047;-64
2022/08/21 01:43:28;;;;;;;4.85;3.75;;;;;;;;;;4993367;28;20050;-64
2022/08/21 01:45:54;;;;;;;4.57;3.17;;;;;;;;;;4992859;28;20400;-64
2022/08/21 01:48:20;;;;;;;3.35;2.50;;;;;;;;;;4990840;28;20039;-64
2022/08/21 01:50:46;;;;;;;6.38;3.25;;;;;;;;;;4987111;28;20034;-64
2022/08/21 01:53:14;;;;;;;5.10;2.92;;;;;;;;;;4973602;28;20145;-63
2022/08/21 01:55:40;;;;;;;5.60;3.75;;;;;;;;;;4993672;28;20451;-64
2022/08/21 01:58:06;;;;;;;3.30;3.00;;;;;;;;;;4992129;28;20038;-64
2022/08/21 02:00:32;;;;;;;6.60;4.35;;;;;;;;;;4988737;28;20112;-64
2022/08/21 02:02:58;;;;;;;4.38;3.83;;;;;;;;;;4991982;28;20042;-64
2022/08/21 02:05:24;;;;;;;4.03;3.30;;;;;;;;;;4990857;28;20034;-64
2022/08/21 02:07:51;;;;;;;6.40;4.07;;;;;;;;;;4991047;28;20049;-64
2022/08/21 02:10:19;;;;;;;4.53;4.05;;;;;;;;;;4991848;28;20038;-64
2022/08/21 02:12:45;;;;;;;4.70;3.97;;;;;;;;;;4991781;28;20096;-63
2022/08/21 02:15:11;;;;;;;5.72;4.00;;;;;;;;;;4992397;28;20045;-63
2022/08/21 02:17:42;;;;;;;6.65;4.43;;;;;;;;;;4987933;28;20122;-64
2022/08/21 02:20:09;;;;;;;7.18;4.75;;;;;;;;;;4975995;28;20042;-64
2022/08/21 02:22:35;;;;;;;6.38;4.38;;;;;;;;;;4989715;28;20088;-64
2022/08/21 02:25:01;;;;;;;6.45;4.57;;;;;;;;;;4992904;28;20045;-64
2022/08/21 02:27:27;;;;;;;5.45;4.80;;;;;;;;;;4992561;28;20038;-64
2022/08/21 02:29:54;;;;;;;6.88;5.82;;;;;;;;;;4974786;28;20133;-63
2022/08/21 02:32:21;;;;;;;5.28;4.28;;;;;;;;;;4991710;28;20193;-64
2022/08/21 02:34:47;;;;;;;6.70;4.88;;;;;;;;;;4996308;28;20041;-64
2022/08/21 02:37:13;;;;;;;7.97;5.07;;;;;;;;;;4994496;28;20046;-64
2022/08/21 02:39:39;;;;;;;6.28;4.90;;;;;;;;;;4990362;28;20034;-64
2022/08/21 02:42:05;;;;;;;8.85;4.65;;;;;;;;;;4991813;28;20045;-64
2022/08/21 02:44:31;;;;;;;6.15;4.65;;;;;;;;;;4983747;28;20043;-63
2022/08/21 02:46:57;;;;;;;6.03;4.47;;;;;;;;;;4972956;28;20484;-64
2022/08/21 02:49:23;;;;;;;6.38;4.30;;;;;;;;;;4998557;28;20042;-64
2022/08/21 02:51:49;;;;;;;7.28;4.30;;;;;;;;;;4979918;28;20084;-64
2022/08/21 02:54:15;;;;;;;3.35;3.05;;;;;;;;;;4992640;28;20456;-64
2022/08/21 02:56:41;;;;;;;6.25;4.10;;;;;;;;;;4991659;28;20496;-64
2022/08/21 02:59:07;;;;;;;6.47;3.90;;;;;;;;;;4991894;28;20096;-64
2022/08/21 03:01:33;;;;;;;6.70;4.22;;;;;;;;;;4973638;28;20050;-64
2022/08/21 03:03:59;;;;;;;7.38;4.18;;;;;;;;;;4991698;28;20046;-64
2022/08/21 03:06:25;;;;;;;7.13;4.13;;;;;;;;;;4990304;28;20558;-64
2022/08/21 03:08:51;;;;;;;8.07;4.25;;;;;;;;;;4991854;28;20049;-64
2022/08/21 03:11:18;;;;;;;3.80;3.22;;;;;;;;;;4992366;28;20096;-64
2022/08/21 03:13:44;;;;;;;3.83;2.97;;;;;;;;;;4994670;28;20049;-64
2022/08/21 03:16:11;;;;;;;5.78;2.88;;;;;;;;;;4993630;28;20488;-64
2022/08/21 03:18:37;;;;;;;2.97;2.67;;;;;;;;;;4987425;28;20151;-64
2022/08/21 03:21:03;;;;;;;3.35;2.83;;;;;;;;;;4987980;28;20043;-64
2022/08/21 03:23:30;;;;;;;4.07;2.60;;;;;;;;;;4973198;28;20042;-64
2022/08/21 03:25:56;;;;;;;4.00;2.92;;;;;;;;;;4974454;28;20074;-64
2022/08/21 03:28:22;;;;;;;4.18;3.00;;;;;;;;;;4990091;28;20042;-64
2022/08/21 03:30:50;;;;;;;5.30;3.78;;;;;;;;;;4996613;28;20052;-64
2022/08/21 03:33:17;;;;;;;3.20;2.78;;;;;;;;;;4990780;28;20043;-64
2022/08/21 03:35:43;;;;;;;3.53;3.20;;;;;;;;;;4974053;28;20042;-64
2022/08/21 03:38:10;;;;;;;3.22;2.92;;;;;;;;;;4991193;28;20173;-64
2022/08/21 03:40:36;;;;;;;2.92;2.63;;;;;;;;;;4991272;28;20042;-64
2022/08/21 03:43:02;;;;;;;2.78;2.50;;;;;;;;;;4950029;28;20056;-64
2022/08/21 03:45:28;;;;;;;3.22;2.78;;;;;;;;;;4990166;28;20073;-64
2022/08/21 03:47:59;;;;;;;3.13;2.63;;;;;;;;;;4989781;28;20042;-64
2022/08/21 03:50:26;;;;;;;3.17;2.65;;;;;;;;;;4988541;28;20034;-64
2022/08/21 03:52:52;;;;;;;4.10;3.58;;;;;;;;;;4994824;28;20051;-64
2022/08/21 03:55:18;;;;;;;3.55;3.00;;;;;;;;;;4961387;28;20046;-64
2022/08/21 03:57:44;;;;;;;3.78;3.47;;;;;;;;;;4991225;28;20046;-64
2022/08/21 04:00:11;;;;;;;4.55;3.20;;;;;;;;;;4972306;28;20073;-64
2022/08/21 04:02:38;;;;;;;4.88;3.10;;;;;;;;;;4993124;28;20129;-64
2022/08/21 04:05:04;;;;;;;7.85;3.85;;;;;;;;;;4988869;28;20558;-64
2022/08/21 04:07:30;;;;;;;4.47;3.97;;;;;;;;;;4990482;28;20116;-64
2022/08/21 04:09:56;;;;;;;6.18;3.95;;;;;;;;;;4972445;28;20043;-64
2022/08/21 04:12:23;;;;;;;4.82;3.83;;;;;;;;;;4983183;28;20050;-64
2022/08/21 04:14:51;;;;;;;5.18;3.90;;;;;;;;;;4983271;28;20060;-64
2022/08/21 04:17:17;;;;;;;5.07;3.70;;;;;;;;;;4976912;28;20046;-64
2022/08/21 04:19:43;;;;;;;4.28;3.65;;;;;;;;;;4994505;28;20038;-64
2022/08/21 04:22:09;;;;;;;5.55;3.80;;;;;;;;;;4995839;28;20046;-64
2022/08/21 04:24:35;;;;;;;4.82;4.00;;;;;;;;;;4993139;28;20042;-64
2022/08/21 04:27:01;;;;;;;5.10;4.20;;;;;;;;;;4996869;28;20446;-64
2022/08/21 04:29:28;;;;;;;4.20;3.70;;;;;;;;;;4990389;28;20038;-63
2022/08/21 04:31:54;;;;;;;4.65;4.00;;;;;;;;;;4990297;28;20046;-64
2022/08/21 04:34:20;;;;;;;5.75;4.03;;;;;;;;;;4990893;28;20045;-64
2022/08/21 04:36:46;;;;;;;4.85;3.92;;;;;;;;;;4975181;28;20042;-64
2022/08/21 04:39:12;;;;;;;6.28;4.72;;;;;;;;;;4974568;28;20050;-64
2022/08/21 04:41:39;;;;;;;6.43;5.20;;;;;;;;;;5000003;28;20030;-64
2022/08/21 04:44:06;;;;;;;5.15;4.60;;;;;;;;;;4994291;28;20054;-63
2022/08/21 04:46:32;;;;;;;6.90;5.25;;;;;;;;;;4993854;28;20053;-64
2022/08/21 04:48:58;;;;;;;6.20;5.00;;;;;;;;;;4994270;28;20069;-64
2022/08/21 04:51:25;;;;;;;5.80;5.03;;;;;;;;;;4997357;28;20121;-63
2022/08/21 04:53:57;;;;;;;7.90;6.78;;;;;;;;;;4990569;28;20492;-64
2022/08/21 04:56:25;;;;;;;10.57;7.00;;;;;;;;;;4993430;28;20038;-64
2022/08/21 04:58:53;;;;;;;10.27;6.35;;;;;;;;;;4993867;28;20042;-63
2022/08/21 05:01:21;;;;;;;8.52;6.50;;;;;;;;;;4999401;28;20057;-64
2022/08/21 05:03:49;;;;;;;14.27;7.30;;;;;;;;;;4993018;28;20053;-64
2022/08/21 05:06:15;;;;;;;7.80;6.80;;;;;;;;;;4993973;28;20092;-64
2022/08/21 05:08:43;;;;;;;9.13;7.20;;;;;;;;;;4992919;28;20359;-63
2022/08/21 05:11:09;;;;;;;10.85;6.57;;;;;;;;;;4991135;28;20383;-63
2022/08/21 05:13:36;;;;;;;9.13;6.35;;;;;;;;;;4991219;28;20062;-63
2022/08/21 05:16:02;;;;;;;9.73;7.05;;;;;;;;;;4976285;28;20046;-63
2022/08/21 05:18:28;;;;;;;8.93;6.70;;;;;;;;;;4990960;28;20085;-63
2022/08/21 05:20:54;;;;;;;9.85;6.45;;;;;;;;;;4975788;28;20046;-63
2022/08/21 05:23:20;;;;;;;11.23;7.75;;;;;;;;;;4991583;28;20038;-63
2022/08/21 05:25:46;;;;;;;15.23;8.43;;;;;;;;;;4994845;28;20089;-63
2022/08/21 05:28:12;;;;;;;14.90;8.65;;;;;;;;;;4976751;28;20193;-63
2022/08/21 05:30:39;;;;;;;10.57;8.85;;;;;;;;;;4978455;28;20092;-63
2022/08/21 05:33:05;;;;;;;12.88;8.70;;;;;;;;;;4963544;28;20046;-63
2022/08/21 05:35:32;;;;;;;12.80;8.60;;;;;;;;;;4986942;28;20103;-63
2022/08/21 05:37:59;;;;;;;11.80;8.35;;;;;;;;;;4991168;28;20039;-63
2022/08/21 05:40:26;;;;;;;13.80;8.73;;;;;;;;;;4988635;28;20069;-63
2022/08/21 05:42:53;;;;;;;14.00;8.70;;;;;;;;;;4992364;28;20435;-63
2022/08/21 05:45:19;;;;;;;11.38;8.43;;;;;;;;;;4986132;28;20181;-63
2022/08/21 05:47:45;;;;;;;14.05;7.95;;;;;;;;;;4990046;28;20046;-64
2022/08/21 05:50:11;;;;;;;13.00;8.18;;;;;;;;;;4981806;28;20046;-63
2022/08/21 05:52:37;;;;;;;12.70;7.93;;;;;;;;;;4973726;28;20045;-64
2022/08/21 05:55:03;;;;;;;10.55;7.47;;;;;;;;;;4992293;28;20074;-63
2022/08/21 05:57:29;;;;;;;14.55;8.05;;;;;;;;;;4995546;28;20045;-64
2022/08/21 05:59:55;;;;;;;13.15;8.00;;;;;;;;;;4982471;28;20049;-63
2022/08/21 06:02:22;;;;;;;14.23;7.60;;;;;;;;;;4996553;28;20038;-63
2022/08/21 06:04:48;;;;;;;13.65;7.88;;;;;;;;;;4988428;28;20055;-63
2022/08/21 06:07:15;;;;;;;12.93;6.75;;;;;;;;;;4991578;28;20066;-63
2022/08/21 06:09:41;;;;;;;12.70;7.60;;;;;;;;;;4984853;28;20126;-63
2022/08/21 06:12:09;;;;;;;11.73;6.85;;;;;;;;;;4986702;28;20120;-64
2022/08/21 06:14:35;;;;;;;13.70;7.43;;;;;;;;;;4985763;28;20034;-64
2022/08/21 06:17:08;;;;;;;11.57;6.85;;;;;;;;;;4973020;28;20054;-63
2022/08/21 06:19:35;;;;;;;12.85;6.43;;;;;;;;;;4968771;28;20051;-63
2022/08/21 06:22:01;;;;;;;11.00;6.25;;;;;;;;;;4989487;28;20085;-64
2022/08/21 06:24:27;;;;;;;11.32;6.38;;;;;;;;;;4993466;28;20093;-64
2022/08/21 06:26:54;;;;;;;9.98;6.10;;;;;;;;;;4983860;28;20042;-64
2022/08/21 06:29:20;;;;;;;10.88;6.57;;;;;;;;;;4970803;28;20089;-64
2022/08/21 06:31:47;;;;;;;12.30;6.45;;;;;;;;;;4987950;28;20037;-64
2022/08/21 06:34:13;;;;;;;12.95;6.47;;;;;;;;;;4986076;28;20047;-63
2022/08/21 06:36:39;;;;;;;10.13;6.18;;;;;;;;;;4987532;28;20403;-63
2022/08/21 06:39:06;;;;;;;11.13;6.60;;;;;;;;;;4992478;28;20089;-64
2022/08/21 06:41:32;;;;;;;11.18;6.47;;;;;;;;;;4994906;28;20488;-63
2022/08/21 06:43:58;;;;;;;11.27;6.00;;;;;;;;;;4991776;28;20093;-64
2022/08/21 06:46:25;;;;;;;12.20;5.75;;;;;;;;;;4992322;28;20034;-63
2022/08/21 06:48:51;;;;;;;10.45;6.13;;;;;;;;;;4982275;28;20263;-64
2022/08/21 06:51:17;;;;;;;10.77;5.72;;;;;;;;;;4989034;28;20034;-63
2022/08/21 06:53:43;;;;;;;8.43;5.57;;;;;;;;;;4989423;28;20045;-64
2022/08/21 06:56:09;;;;;;;15.45;6.80;;;;;;;;;;4992128;28;20072;-63
2022/08/21 06:58:35;;;;;;;9.05;5.60;;;;;;;;;;4989399;28;20038;-64
2022/08/21 07:01:02;;;;;;;8.02;4.90;;;;;;;;;;4986987;28;20065;-63
2022/08/21 07:03:33;;;;;;;10.55;5.65;;;;;;;;;;4994700;28;20042;-64
2022/08/21 07:05:59;;;;;;;9.43;5.28;;;;;;;;;;4989315;28;20054;-64
2022/08/21 07:08:25;;;;;;;9.70;5.40;;;;;;;;;;4978518;28;20042;-63
2022/08/21 07:10:52;;;;;;;9.13;4.78;;;;;;;;;;4989173;28;20105;-64
2022/08/21 07:13:19;;;;;;;10.80;5.68;;;;;;;;;;4991142;28;20039;-64
2022/08/21 07:15:45;;;;;;;9.90;4.43;;;;;;;;;;4988165;28;20043;-64
2022/08/21 07:18:13;;;;;;;9.18;4.65;;;;;;;;;;4987522;28;20057;-64
2022/08/21 07:20:39;;;;;;;10.13;4.53;;;;;;;;;;4989107;28;20042;-64
2022/08/21 07:23:06;;;;;;;10.38;4.78;;;;;;;;;;4989618;28;20404;-63
2022/08/21 07:25:33;;;;;;;8.10;4.82;;;;;;;;;;4982425;28;20049;-64
2022/08/21 07:27:59;;;;;;;9.90;4.53;;;;;;;;;;4990407;28;20121;-64
2022/08/21 07:30:25;;;;;;;11.27;4.70;;;;;;;;;;4988767;28;20043;-64
2022/08/21 07:32:51;;;;;;;12.13;5.10;;;;;;;;;;4985192;28;20054;-63
2022/08/21 07:35:18;;;;;;;10.32;4.60;;;;;;;;;;4989927;28;20049;-64
2022/08/21 07:37:44;;;;;;;9.80;4.63;;;;;;;;;;4990686;28;20427;-63
2022/08/21 07:40:10;;;;;;;9.48;4.82;;;;;;;;;;4993551;28;20065;-63
2022/08/21 07:42:40;;;;;;;11.00;4.88;;;;;;;;;;4991085;28;20042;-63
2022/08/21 07:45:06;;;;;;;10.50;4.75;;;;;;;;;;4990925;28;20046;-63
2022/08/21 07:47:32;;;;;;;14.73;4.85;;;;;;;;;;4983788;28;20039;-63
2022/08/21 07:49:58;;;;;;;9.48;4.55;;;;;;;;;;4992305;28;20045;-63
2022/08/21 07:52:24;;;;;;;9.90;4.72;;;;;;;;;;4995038;28;20034;-63
2022/08/21 07:54:50;;;;;;;9.82;4.55;;;;;;;;;;4994050;28;20550;-63
2022/08/21 07:57:16;;;;;;;12.57;4.55;;;;;;;;;;4993958;28;20042;-64
2022/08/21 07:59:42;;;;;;;10.77;4.40;;;;;;;;;;4994193;28;20046;-64
2022/08/21 08:02:08;;;;;;;12.40;4.28;;;;;;;;;;4996614;28;20053;-65
2022/08/21 08:04:34;;;;;;;14.43;3.85;;;;;;;;;;4991925;28;20125;-64
2022/08/21 08:07:00;;;;;;;9.88;3.75;;;;;;;;;;4980017;28;20070;-64
2022/08/21 08:09:26;;;;;;;7.38;3.35;;;;;;;;;;4991269;28;21624;-64
2022/08/21 08:11:53;;;;;;;11.90;4.47;;;;;;;;;;4994573;28;20042;-63
2022/08/21 08:14:19;;;;;;;10.55;4.00;;;;;;;;;;4996581;28;20042;-63
2022/08/21 08:16:45;;;;;;;9.20;3.75;;;;;;;;;;4993043;28;20049;-64
2022/08/21 08:19:11;;;;;;;11.10;3.63;;;;;;;;;;4974581;28;20042;-65
2022/08/21 08:21:38;;;;;;;10.88;3.83;;;;;;;;;;4996013;28;20038;-64
2022/08/21 08:24:04;;;;;;;11.07;3.20;;;;;;;;;;4988903;28;20038;-65
2022/08/21 08:26:30;;;;;;;9.90;3.63;;;;;;;;;;4992689;28;20054;-64
2022/08/21 08:28:56;;;;;;;8.70;3.10;;;;;;;;;;4996879;28;20049;-64
2022/08/21 08:31:23;;;;;;;10.25;3.60;;;;;;;;;;4999112;28;20113;-64
2022/08/21 08:33:49;;;;;;;7.95;3.20;;;;;;;;;;4995120;28;20551;-64
2022/08/21 08:36:17;;;;;;;7.60;2.95;;;;;;;;;;4993193;28;20042;-64
2022/08/21 08:38:43;;;;;;;12.48;3.65;;;;;;;;;;4974439;28;20096;-64
2022/08/21 08:41:18;;;;;;;8.15;2.80;;;;;;;;;;4989404;28;20041;-64
2022/08/21 08:43:55;;;;;;;9.73;2.85;;;;;;;;;;4973682;28;20062;-64
2022/08/21 08:46:32;;;;;;;5.55;2.80;;;;;;;;;;4999396;28;20045;-64
2022/08/21 08:49:02;;;;;;;9.95;4.00;;;;;;;;;;4994557;28;20492;-63
2022/08/21 08:51:35;;;;;;;10.77;3.40;;;;;;;;;;4992943;28;20038;-64
2022/08/21 08:54:03;;;;;;;7.75;2.85;;;;;;;;;;4992708;28;20070;-64
2022/08/21 08:56:31;;;;;;;6.07;2.97;;;;;;;;;;4993047;28;20042;-64
2022/08/21 08:59:01;;;;;;;7.22;3.15;;;;;;;;;;4993315;28;20038;-64
2022/08/21 09:01:27;;;;;;;7.57;3.20;;;;;;;;;;4981994;28;20057;-64
2022/08/21 09:03:53;;;;;;;8.43;3.15;;;;;;;;;;4993028;28;20057;-65
2022/08/21 09:06:42;;;;;;;7.88;2.65;;;;;;;;;;4992830;28;20041;-64
2022/08/21 09:09:21;;;;;;;9.32;3.33;;;;;;;;;;4997011;28;20587;-64
2022/08/21 09:12:05;;;;;;;12.93;3.30;;;;;;;;;;5003421;28;20030;-64
2022/08/21 09:14:47;;;;;;;10.15;2.92;;;;;;;;;;4990891;28;20491;-64
2022/08/21 09:17:24;;;;;;;11.30;3.45;;;;;;;;;;4991423;28;20045;-65
2022/08/21 09:19:53;;;;;;;9.15;2.78;;;;;;;;;;4992989;28;20041;-64
2022/08/21 09:22:34;;;;;;;6.78;3.42;;;;;;;;;;4994219;28;20042;-64
2022/08/21 09:25:00;;;;;;;8.32;2.92;;;;;;;;;;4993171;28;20042;-64
2022/08/21 09:27:26;;;;;;;6.57;3.03;;;;;;;;;;4970096;28;20488;-64
2022/08/21 09:29:54;;;;;;;9.18;2.60;;;;;;;;;;4991955;28;20127;-63
2022/08/21 09:32:24;;;;;;;7.72;2.78;;;;;;;;;;4992998;28;20073;-64
2022/08/21 09:34:57;;;;;;;6.95;2.50;;;;;;;;;;4975257;28;20070;-64
2022/08/21 09:37:23;;;;;;;5.90;2.10;;;;;;;;;;4995536;28;20513;-64
2022/08/21 09:39:49;;;;;;;6.47;2.60;;;;;;;;;;4990244;28;20130;-64
2022/08/21 09:42:22;;;;;;;7.45;2.70;;;;;;;;;;4994516;28;20124;-64
2022/08/21 09:44:48;;;;;;;8.32;2.75;;;;;;;;;;4992369;28;20053;-64
2022/08/21 09:47:19;;;;;;;6.13;2.20;;;;;;;;;;4992366;28;20104;-64
2022/08/21 09:49:45;;;;;;;8.70;2.60;;;;;;;;;;4993504;28;20065;-64
2022/08/21 09:52:19;;;;;;;10.68;2.47;;;;;;;;;;4991498;28;20042;-64
2022/08/21 09:54:46;;;;;;;7.85;2.83;;;;;;;;;;4989654;28;20050;-64
2022/08/21 09:57:46;;;;;;;7.85;2.70;;;;;;;;;;4993400;28;20061;-64
2022/08/21 10:00:21;;;;;;;8.25;3.03;;;;;;;;;;4987956;28;20060;-63
2022/08/21 10:02:47;;;;;;;8.85;2.47;;;;;;;;;;4991917;28;20034;-64
2022/08/21 10:05:19;;;;;;;10.05;2.60;;;;;;;;;;4993129;28;20518;-64
2022/08/21 10:07:46;;;;;;;7.88;2.22;;;;;;;;;;4992843;28;20096;-64
2022/08/21 10:10:18;;;;;;;6.22;2.35;;;;;;;;;;4986771;28;20049;-64
2022/08/21 10:12:54;;;;;;;6.47;2.10;;;;;;;;;;4996234;28;20030;-64
2022/08/21 10:15:20;;;;;;;7.72;2.38;;;;;;;;;;4989214;28;20049;-64
2022/08/21 10:17:55;;;;;;;6.78;2.30;;;;;;;;;;4992412;28;20034;-64
2022/08/21 10:20:28;;;;;;;5.75;2.47;;;;;;;;;;4990730;28;20399;-65
2022/08/21 10:23:09;;;;;;;4.57;2.25;;;;;;;;;;4987936;28;20077;-64
2022/08/21 10:25:45;;;;;;;5.43;1.80;;;;;;;;;;4990826;28;20048;-65
2022/08/21 10:28:18;;;;;;;8.07;2.17;;;;;;;;;;4990350;28;20038;-65
2022/08/21 10:30:50;;;;;;;8.55;2.15;;;;;;;;;;4992550;28;20038;-65
2022/08/21 10:33:33;;;;;;;5.32;1.95;;;;;;;;;;4991391;28;20039;-64
2022/08/21 10:36:09;;;;;;;8.95;2.30;;;;;;;;;;4995554;28;20030;-65
2022/08/21 10:38:35;;;;;;;5.35;1.80;;;;;;;;;;4984163;28;20031;-65
2022/08/21 10:41:18;;;;;;;7.03;2.13;;;;;;;;;;4991931;28;20030;-65
2022/08/21 10:44:03;;;;;;;9.90;2.08;;;;;;;;;;4984143;28;20045;-64
2022/08/21 10:46:29;;;;;;;6.05;2.00;;;;;;;;;;4989652;28;20046;-64
2022/08/21 10:48:58;;;;;;;5.00;2.30;;;;;;;;;;4992385;28;20038;-64
2022/08/21 10:51:24;;;;;;;4.43;1.58;;;;;;;;;;4993269;28;20109;-64
2022/08/21 10:54:00;;;;;;;6.63;1.70;;;;;;;;;;4992210;28;20037;-64
2022/08/21 10:56:29;;;;;;;7.03;2.28;;;;;;;;;;4990770;28;20042;-64
2022/08/21 10:59:02;;;;;;;4.63;1.90;;;;;;;;;;4975262;28;20500;-64
2022/08/21 11:01:32;;;;;;;6.05;1.40;;;;;;;;;;4990948;28;20039;-65
2022/08/21 11:04:10;;;;;;;8.07;1.27;;;;;;;;;;4987259;28;20046;-64
2022/08/21 11:06:38;;;;;;;5.18;1.58;;;;;;;;;;4990605;28;20038;-64
2022/08/21 11:09:10;;;;;;;7.30;1.73;;;;;;;;;;4992399;28;20050;-64
2022/08/21 11:11:37;;;;;;;5.85;1.33;;;;;;;;;;4986784;28;20460;-64
2022/08/21 11:14:13;;;;;;;5.00;1.33;;;;;;;;;;4989627;28;20042;-64
2022/08/21 11:16:46;;;;;;;5.90;1.80;;;;;;;;;;4988273;28;20038;-64
2022/08/21 11:19:22;;;;;;;5.55;1.65;;;;;;;;;;4995928;28;20097;-64
2022/08/21 11:21:56;;;;;;;4.50;1.40;;;;;;;;;;4995278;28;20049;-64
2022/08/21 11:24:36;;;;;;;6.13;1.58;;;;;;;;;;4995564;28;20038;-65
2022/08/21 11:27:10;;;;;;;7.38;2.33;;;;;;;;;;4995029;28;20046;-65
2022/08/21 11:29:39;;;;;;;6.45;1.50;;;;;;;;;;4995150;28;20069;-65
2022/08/21 11:32:14;;;;;;;7.57;1.88;;;;;;;;;;4997892;28;20099;-66
2022/08/21 11:34:47;;;;;;;7.97;1.70;;;;;;;;;;4994771;28;20038;-65
2022/08/21 11:37:21;;;;;;;5.97;1.33;;;;;;;;;;4994295;28;20042;-65
2022/08/21 11:39:53;;;;;;;5.55;1.48;;;;;;;;;;4987977;28;20046;-65
2022/08/21 11:42:37;;;;;;;4.30;1.25;;;;;;;;;;4997399;28;20038;-65
2022/08/21 11:45:14;;;;;;;6.00;1.45;;;;;;;;;;4993287;28;20053;-65
2022/08/21 11:47:43;;;;;;;4.57;1.80;;;;;;;;;;4997759;28;20531;-65
2022/08/21 11:50:22;;;;;;;4.53;1.30;;;;;;;;;;4995451;28;20038;-65
2022/08/21 11:52:57;;;;;;;4.53;1.48;;;;;;;;;;4989675;28;20091;-65
2022/08/21 11:55:29;;;;;;;7.70;1.65;;;;;;;;;;4993810;28;20125;-65
2022/08/21 11:58:20;;;;;;;3.72;1.35;;;;;;;;;;4976795;28;20053;-65
2022/08/21 12:00:49;;;;;;;5.82;1.83;;;;;;;;;;4990170;28;20576;-64
2022/08/21 12:03:17;;;;;;;5.15;2.08;;;;;;;;;;4995293;28;20042;-65
2022/08/21 12:05:52;;;;;;;5.40;1.50;;;;;;;;;;4995268;28;20134;-64
2022/08/21 12:08:30;;;;;;;3.95;1.30;;;;;;;;;;4997976;28;20534;-65
2022/08/21 12:11:04;;;;;;;5.97;1.63;;;;;;;;;;4992026;28;20038;-65
2022/08/21 12:13:32;;;;;;;5.65;1.58;;;;;;;;;;4992589;28;20039;-64
2022/08/21 12:16:06;;;;;;;5.47;1.52;;;;;;;;;;4993166;28;20525;-64
2022/08/21 12:18:33;;;;;;;8.50;1.88;;;;;;;;;;4988354;28;20534;-65
2022/08/21 12:21:02;;;;;;;4.35;1.33;;;;;;;;;;4994103;28;20038;-64
2022/08/21 12:23:33;;;;;;;6.18;1.55;;;;;;;;;;4992573;28;20030;-65
2022/08/21 12:25:59;;;;;;;;;;;;;;;;;;4990887;28;20057;-65
2022/08/21 12:28:26;;;;;;;4.65;1.38;;;;;;;;;;4991659;28;20008;-65
2022/08/21 12:30:52;;;;;;;3.88;1.55;;;;;;;;;;4991875;28;20101;-65
2022/08/21 12:33:24;;;;;;;5.38;1.60;;;;;;;;;;4993099;28;20542;-64
2022/08/21 12:35:52;;;;;;;3.78;1.23;;;;;;;;;;4992857;28;20038;-65
2022/08/21 12:38:21;;;;;;;3.83;1.30;;;;;;;;;;4992314;28;20121;-65
2022/08/21 12:40:53;;;;;;;8.88;2.03;;;;;;;;;;4990639;28;20030;-65
2022/08/21 12:43:42;;;;;;;6.22;1.40;;;;;;;;;;4987840;28;20058;-65
2022/08/21 12:46:15;;;;;;;5.57;1.77;;;;;;;;;;4961602;28;20451;-65
2022/08/21 12:48:44;;;;;;;5.05;1.50;;;;;;;;;;4987041;28;20428;-65
2022/08/21 12:51:10;;;;;;;4.82;1.63;;;;;;;;;;4990922;28;20042;-64
2022/08/21 12:53:40;;;;;;;6.63;1.92;;;;;;;;;;4992232;28;20034;-64
2022/08/21 12:56:11;;;;;;;6.63;1.48;;;;;;;;;;4993013;28;20038;-64
2022/08/21 12:58:37;;;;;;;;;;;;;;;;;;4994335;28;20496;-64
2022/08/21 13:01:06;;;;;;;5.45;1.58;;;;;;;;;;4974006;28;19917;-64
2022/08/21 13:03:35;;;;;;;5.88;2.00;;;;;;;;;;4987365;28;20039;-64
2022/08/21 13:06:03;;;;;;;8.55;1.67;;;;;;;;;;4994488;28;20074;-64
2022/08/21 13:08:30;;;;;;;5.90;1.77;;;;;;;;;;4976575;28;20050;-64
2022/08/21 13:11:05;;;;;;;7.03;1.60;;;;;;;;;;4972225;28;20495;-63
2022/08/21 13:13:32;;;;;;;6.50;1.70;;;;;;;;;;4993694;28;20117;-64
2022/08/21 13:16:06;;;;;;;5.85;2.03;;;;;;;;;;4972344;28;20070;-64
2022/08/21 13:18:34;;;;;;;6.60;1.88;;;;;;;;;;4973340;28;20271;-64
2022/08/21 13:21:08;;;;;;;8.10;1.95;;;;;;;;;;4991607;28;20577;-64
2022/08/21 13:23:34;;;;;;;5.20;1.60;;;;;;;;;;4987498;28;20532;-64
2022/08/21 13:26:02;;;;;;;5.70;1.70;;;;;;;;;;4991850;28;20077;-64
2022/08/21 13:28:37;;;;;;;3.78;2.00;;;;;;;;;;4990651;28;20081;-64
2022/08/21 13:31:06;;;;;;;6.05;1.88;;;;;;;;;;4993716;28;20046;-64
2022/08/21 13:33:32;;;;;;;6.22;1.80;;;;;;;;;;4992972;28;20073;-64
2022/08/21 13:36:05;;;;;;;7.68;1.90;;;;;;;;;;4997257;28;20042;-64
2022/08/21 13:38:32;;;;;;;6.53;1.98;;;;;;;;;;4993322;28;20093;-65
2022/08/21 13:40:58;;;;;;;8.48;1.52;;;;;;;;;;4992013;28;20044;-64
2022/08/21 13:43:28;;;;;;;6.88;1.90;;;;;;;;;;4984297;28;20454;-63
2022/08/21 13:45:55;;;;;;;3.70;1.63;;;;;;;;;;4991229;28;20038;-63
2022/08/21 13:48:23;;;;;;;4.93;1.88;;;;;;;;;;4988937;28;20066;-63
2022/08/21 13:50:49;;;;;;;10.27;2.20;;;;;;;;;;4985053;28;20046;-64
2022/08/21 13:53:21;;;;;;;6.72;1.95;;;;;;;;;;4992149;28;20117;-63
2022/08/21 13:55:48;;;;;;;4.57;1.70;;;;;;;;;;4992053;28;20038;-63
2022/08/21 13:58:24;;;;;;;6.68;2.40;;;;;;;;;;4982275;28;20122;-63
2022/08/21 14:00:51;;;;;;;8.90;1.90;;;;;;;;;;4984140;28;20034;-64
2022/08/21 14:03:29;;;;;;;5.65;1.67;;;;;;;;;;4990474;28;20072;-62
2022/08/21 14:05:55;;;;;;;6.32;2.22;;;;;;;;;;4974686;28;20042;-62
2022/08/21 14:08:28;;;;;;;5.22;2.05;;;;;;;;;;4992835;28;20113;-61
2022/08/21 14:10:54;;;;;;;7.40;1.92;;;;;;;;;;4994588;28;20057;-63
2022/08/21 14:13:38;;;;;;;8.02;1.92;;;;;;;;;;4990069;28;20046;-63
2022/08/21 14:16:12;;;;;;;8.88;2.25;;;;;;;;;;4990061;28;20045;-63
2022/08/21 14:18:45;;;;;;;5.65;1.83;;;;;;;;;;4982174;28;20073;-63
2022/08/21 14:21:13;;;;;;;9.18;2.33;;;;;;;;;;4990362;28;20057;-63
2022/08/21 14:23:39;;;;;;;6.32;2.35;;;;;;;;;;4990606;28;20042;-63
2022/08/21 14:26:06;;;;;;;7.45;1.80;;;;;;;;;;4991046;28;20121;-63
2022/08/21 14:28:38;;;;;;;6.65;1.90;;;;;;;;;;4986895;28;20045;-63
2022/08/21 14:31:12;;;;;;;7.63;1.80;;;;;;;;;;4972972;28;20093;-63
2022/08/21 14:33:39;;;;;;;6.93;1.95;;;;;;;;;;4987338;28;20034;-63
2022/08/21 14:36:05;;;;;;;7.55;1.92;;;;;;;;;;4977152;28;20038;-63
2022/08/21 14:38:32;;;;;;;8.35;1.88;;;;;;;;;;4988171;28;20038;-63
2022/08/21 14:41:00;;;;;;;5.68;2.10;;;;;;;;;;4989184;28;20042;-63
2022/08/21 14:43:27;;;;;;;6.25;1.88;;;;;;;;;;4989582;28;20031;-64
2022/08/21 14:45:53;;;;;;;6.32;1.88;;;;;;;;;;4986592;28;20070;-63
2022/08/21 14:48:19;;;;;;;5.95;1.92;;;;;;;;;;4995432;28;20042;-64